sensor_id;sensor_type;location;lat;lon;timestamp;P1;durP1;ratioP1;P2;durP2;ratioP2
33150;SDS011;19508;42.578;23.416;2023-07-29T00:01:58;2.92;;;2.40;;
33150;SDS011;19508;42.578;23.416;2023-07-29T00:04:23;2.92;;;2.30;;
33150;SDS011;19508;42.578;23.416;2023-07-29T00:06:49;2.53;;;2.08;;
33150;SDS011;19508;42.578;23.416;2023-07-29T00:09:14;8.55;;;2.40;;
33150;SDS011;19508;42.578;23.416;2023-07-29T00:11:39;3.83;;;2.13;;
33150;SDS011;19508;42.578;23.416;2023-07-29T00:14:05;3.20;;;2.17;;
33150;SDS011;19508;42.578;23.416;2023-07-29T00:16:30;7.47;;;2.17;;
33150;SDS011;19508;42.578;23.416;2023-07-29T00:18:56;3.53;;;2.40;;
33150;SDS011;19508;42.578;23.416;2023-07-29T00:21:21;4.40;;;2.50;;
33150;SDS011;19508;42.578;23.416;2023-07-29T00:23:46;3.22;;;2.35;;
33150;SDS011;19508;42.578;23.416;2023-07-29T00:26:12;3.95;;;2.17;;
33150;SDS011;19508;42.578;23.416;2023-07-29T00:28:37;4.00;;;2.60;;
33150;SDS011;19508;42.578;23.416;2023-07-29T00:31:03;7.38;;;2.55;;
33150;SDS011;19508;42.578;23.416;2023-07-29T00:33:28;5.20;;;2.20;;
33150;SDS011;19508;42.578;23.416;2023-07-29T00:35:54;6.05;;;2.40;;
33150;SDS011;19508;42.578;23.416;2023-07-29T00:38:21;3.10;;;2.35;;
33150;SDS011;19508;42.578;23.416;2023-07-29T00:40:47;3.63;;;2.50;;
33150;SDS011;19508;42.578;23.416;2023-07-29T00:43:12;3.38;;;2.35;;
33150;SDS011;19508;42.578;23.416;2023-07-29T00:45:37;3.28;;;2.55;;
33150;SDS011;19508;42.578;23.416;2023-07-29T00:48:04;5.30;;;2.92;;
33150;SDS011;19508;42.578;23.416;2023-07-29T00:50:30;10.30;;;2.60;;
33150;SDS011;19508;42.578;23.416;2023-07-29T00:52:57;5.88;;;2.50;;
33150;SDS011;19508;42.578;23.416;2023-07-29T00:55:23;3.20;;;2.50;;
33150;SDS011;19508;42.578;23.416;2023-07-29T00:57:49;4.18;;;2.83;;
33150;SDS011;19508;42.578;23.416;2023-07-29T01:00:17;6.80;;;2.65;;
33150;SDS011;19508;42.578;23.416;2023-07-29T01:02:43;3.33;;;2.63;;
33150;SDS011;19508;42.578;23.416;2023-07-29T01:05:09;3.13;;;2.70;;
33150;SDS011;19508;42.578;23.416;2023-07-29T01:16:19;3.63;;;2.60;;
33150;SDS011;19508;42.578;23.416;2023-07-29T01:18:48;6.82;;;2.80;;
33150;SDS011;19508;42.578;23.416;2023-07-29T01:21:17;4.57;;;2.72;;
33150;SDS011;19508;42.578;23.416;2023-07-29T01:23:44;3.17;;;2.45;;
33150;SDS011;19508;42.578;23.416;2023-07-29T01:26:10;4.82;;;2.83;;
33150;SDS011;19508;42.578;23.416;2023-07-29T01:28:35;4.03;;;2.60;;
33150;SDS011;19508;42.578;23.416;2023-07-29T01:34:01;3.78;;;2.85;;
33150;SDS011;19508;42.578;23.416;2023-07-29T01:36:32;6.22;;;3.13;;
33150;SDS011;19508;42.578;23.416;2023-07-29T01:39:04;3.78;;;2.80;;
33150;SDS011;19508;42.578;23.416;2023-07-29T01:41:30;3.75;;;2.42;;
33150;SDS011;19508;42.578;23.416;2023-07-29T01:43:56;3.50;;;2.42;;
33150;SDS011;19508;42.578;23.416;2023-07-29T01:46:22;5.40;;;2.80;;
33150;SDS011;19508;42.578;23.416;2023-07-29T01:48:48;3.17;;;2.20;;
33150;SDS011;19508;42.578;23.416;2023-07-29T01:51:14;3.78;;;2.70;;
33150;SDS011;19508;42.578;23.416;2023-07-29T01:53:39;3.50;;;2.63;;
33150;SDS011;19508;42.578;23.416;2023-07-29T01:56:05;3.33;;;2.10;;
33150;SDS011;19508;42.578;23.416;2023-07-29T01:58:30;7.35;;;2.50;;
33150;SDS011;19508;42.578;23.416;2023-07-29T02:00:56;3.88;;;2.60;;
33150;SDS011;19508;42.578;23.416;2023-07-29T02:03:21;6.70;;;3.13;;
33150;SDS011;19508;42.578;23.416;2023-07-29T02:05:47;6.25;;;2.80;;
33150;SDS011;19508;42.578;23.416;2023-07-29T02:08:12;14.65;;;2.88;;
33150;SDS011;19508;42.578;23.416;2023-07-29T02:10:39;5.00;;;3.20;;
33150;SDS011;19508;42.578;23.416;2023-07-29T02:13:04;4.63;;;3.08;;
33150;SDS011;19508;42.578;23.416;2023-07-29T02:15:30;3.90;;;2.75;;
33150;SDS011;19508;42.578;23.416;2023-07-29T02:17:55;3.55;;;2.53;;
33150;SDS011;19508;42.578;23.416;2023-07-29T02:20:20;5.95;;;2.80;;
33150;SDS011;19508;42.578;23.416;2023-07-29T02:22:46;4.47;;;2.85;;
33150;SDS011;19508;42.578;23.416;2023-07-29T02:25:13;4.03;;;3.00;;
33150;SDS011;19508;42.578;23.416;2023-07-29T02:27:39;4.97;;;3.10;;
33150;SDS011;19508;42.578;23.416;2023-07-29T02:30:04;9.10;;;2.95;;
33150;SDS011;19508;42.578;23.416;2023-07-29T02:32:30;3.90;;;2.13;;
33150;SDS011;19508;42.578;23.416;2023-07-29T02:34:56;4.95;;;2.40;;
33150;SDS011;19508;42.578;23.416;2023-07-29T02:37:21;6.03;;;2.67;;
33150;SDS011;19508;42.578;23.416;2023-07-29T02:39:47;4.97;;;2.70;;
33150;SDS011;19508;42.578;23.416;2023-07-29T02:42:12;4.15;;;2.70;;
33150;SDS011;19508;42.578;23.416;2023-07-29T02:44:38;6.60;;;3.85;;
33150;SDS011;19508;42.578;23.416;2023-07-29T02:47:05;6.78;;;3.60;;
33150;SDS011;19508;42.578;23.416;2023-07-29T02:49:30;5.75;;;3.75;;
33150;SDS011;19508;42.578;23.416;2023-07-29T02:51:55;12.20;;;3.50;;
33150;SDS011;19508;42.578;23.416;2023-07-29T02:54:21;3.78;;;3.03;;
33150;SDS011;19508;42.578;23.416;2023-07-29T02:56:46;11.13;;;3.30;;
33150;SDS011;19508;42.578;23.416;2023-07-29T02:59:12;25.98;;;4.28;;
33150;SDS011;19508;42.578;23.416;2023-07-29T03:01:37;12.93;;;3.20;;
33150;SDS011;19508;42.578;23.416;2023-07-29T03:04:02;3.45;;;2.72;;
33150;SDS011;19508;42.578;23.416;2023-07-29T03:06:28;5.30;;;2.90;;
33150;SDS011;19508;42.578;23.416;2023-07-29T03:08:53;43.40;;;5.97;;
33150;SDS011;19508;42.578;23.416;2023-07-29T03:11:19;40.22;;;7.40;;
33150;SDS011;19508;42.578;23.416;2023-07-29T03:13:45;6.90;;;3.28;;
33150;SDS011;19508;42.578;23.416;2023-07-29T03:16:11;4.97;;;3.00;;
33150;SDS011;19508;42.578;23.416;2023-07-29T03:18:39;5.68;;;3.08;;
33150;SDS011;19508;42.578;23.416;2023-07-29T03:21:05;4.32;;;2.85;;
33150;SDS011;19508;42.578;23.416;2023-07-29T03:23:31;6.70;;;3.17;;
33150;SDS011;19508;42.578;23.416;2023-07-29T03:25:58;5.13;;;2.80;;
33150;SDS011;19508;42.578;23.416;2023-07-29T03:28:32;4.47;;;3.05;;
33150;SDS011;19508;42.578;23.416;2023-07-29T03:30:58;7.63;;;3.22;;
33150;SDS011;19508;42.578;23.416;2023-07-29T03:33:24;4.60;;;2.50;;
33150;SDS011;19508;42.578;23.416;2023-07-29T03:35:51;3.80;;;2.40;;
33150;SDS011;19508;42.578;23.416;2023-07-29T03:38:16;4.03;;;2.90;;
33150;SDS011;19508;42.578;23.416;2023-07-29T03:40:42;3.42;;;2.63;;
33150;SDS011;19508;42.578;23.416;2023-07-29T03:43:07;3.97;;;3.05;;
33150;SDS011;19508;42.578;23.416;2023-07-29T03:45:34;4.03;;;2.78;;
33150;SDS011;19508;42.578;23.416;2023-07-29T03:48:00;5.28;;;3.20;;
33150;SDS011;19508;42.578;23.416;2023-07-29T03:50:26;6.15;;;2.97;;
33150;SDS011;19508;42.578;23.416;2023-07-29T03:52:52;5.90;;;3.22;;
33150;SDS011;19508;42.578;23.416;2023-07-29T03:55:18;7.65;;;3.15;;
33150;SDS011;19508;42.578;23.416;2023-07-29T03:57:44;5.22;;;3.30;;
33150;SDS011;19508;42.578;23.416;2023-07-29T04:00:09;5.75;;;3.35;;
33150;SDS011;19508;42.578;23.416;2023-07-29T04:02:35;7.53;;;3.33;;
33150;SDS011;19508;42.578;23.416;2023-07-29T04:05:02;6.35;;;2.92;;
33150;SDS011;19508;42.578;23.416;2023-07-29T04:07:29;7.95;;;2.70;;
33150;SDS011;19508;42.578;23.416;2023-07-29T04:09:55;18.15;;;3.38;;
33150;SDS011;19508;42.578;23.416;2023-07-29T04:12:20;6.32;;;3.17;;
33150;SDS011;19508;42.578;23.416;2023-07-29T04:14:46;10.10;;;3.20;;
33150;SDS011;19508;42.578;23.416;2023-07-29T04:17:12;5.85;;;3.08;;
33150;SDS011;19508;42.578;23.416;2023-07-29T04:19:37;8.25;;;3.10;;
33150;SDS011;19508;42.578;23.416;2023-07-29T04:22:03;6.13;;;3.28;;
33150;SDS011;19508;42.578;23.416;2023-07-29T04:24:28;6.90;;;3.17;;
33150;SDS011;19508;42.578;23.416;2023-07-29T04:26:54;4.47;;;2.97;;
33150;SDS011;19508;42.578;23.416;2023-07-29T04:29:20;4.43;;;2.67;;
33150;SDS011;19508;42.578;23.416;2023-07-29T04:31:45;5.65;;;2.80;;
33150;SDS011;19508;42.578;23.416;2023-07-29T04:34:11;4.45;;;3.22;;
33150;SDS011;19508;42.578;23.416;2023-07-29T04:36:36;4.53;;;2.80;;
33150;SDS011;19508;42.578;23.416;2023-07-29T04:39:02;9.25;;;3.30;;
33150;SDS011;19508;42.578;23.416;2023-07-29T04:41:27;4.00;;;2.90;;
33150;SDS011;19508;42.578;23.416;2023-07-29T04:43:53;3.78;;;2.80;;
33150;SDS011;19508;42.578;23.416;2023-07-29T04:46:18;4.75;;;3.08;;
33150;SDS011;19508;42.578;23.416;2023-07-29T04:48:43;5.82;;;3.70;;
33150;SDS011;19508;42.578;23.416;2023-07-29T04:51:09;3.88;;;2.78;;
33150;SDS011;19508;42.578;23.416;2023-07-29T04:53:34;8.55;;;3.17;;
33150;SDS011;19508;42.578;23.416;2023-07-29T04:56:01;5.13;;;3.08;;
33150;SDS011;19508;42.578;23.416;2023-07-29T04:58:27;4.57;;;3.13;;
33150;SDS011;19508;42.578;23.416;2023-07-29T05:00:54;6.22;;;2.75;;
33150;SDS011;19508;42.578;23.416;2023-07-29T05:03:20;7.28;;;2.65;;
33150;SDS011;19508;42.578;23.416;2023-07-29T05:05:46;6.68;;;2.88;;
33150;SDS011;19508;42.578;23.416;2023-07-29T05:08:11;5.97;;;2.78;;
33150;SDS011;19508;42.578;23.416;2023-07-29T05:10:36;7.30;;;2.80;;
33150;SDS011;19508;42.578;23.416;2023-07-29T05:13:02;4.60;;;2.75;;
33150;SDS011;19508;42.578;23.416;2023-07-29T05:15:27;3.78;;;2.45;;
33150;SDS011;19508;42.578;23.416;2023-07-29T05:17:53;3.15;;;2.70;;
33150;SDS011;19508;42.578;23.416;2023-07-29T05:20:18;4.47;;;2.95;;
33150;SDS011;19508;42.578;23.416;2023-07-29T05:22:44;4.00;;;2.55;;
33150;SDS011;19508;42.578;23.416;2023-07-29T05:25:09;5.35;;;2.50;;
33150;SDS011;19508;42.578;23.416;2023-07-29T05:27:35;3.65;;;2.13;;
33150;SDS011;19508;42.578;23.416;2023-07-29T05:30:00;3.28;;;2.60;;
33150;SDS011;19508;42.578;23.416;2023-07-29T05:32:25;7.75;;;2.63;;
33150;SDS011;19508;42.578;23.416;2023-07-29T05:34:51;4.15;;;2.75;;
33150;SDS011;19508;42.578;23.416;2023-07-29T05:37:16;2.90;;;2.40;;
33150;SDS011;19508;42.578;23.416;2023-07-29T05:39:42;3.78;;;2.45;;
33150;SDS011;19508;42.578;23.416;2023-07-29T05:42:07;4.72;;;2.65;;
33150;SDS011;19508;42.578;23.416;2023-07-29T05:44:33;4.45;;;2.90;;
33150;SDS011;19508;42.578;23.416;2023-07-29T05:46:58;4.18;;;2.92;;
33150;SDS011;19508;42.578;23.416;2023-07-29T05:49:24;7.05;;;2.67;;
33150;SDS011;19508;42.578;23.416;2023-07-29T05:51:49;6.93;;;2.80;;
33150;SDS011;19508;42.578;23.416;2023-07-29T05:54:17;4.38;;;2.60;;
33150;SDS011;19508;42.578;23.416;2023-07-29T05:56:43;4.38;;;2.80;;
33150;SDS011;19508;42.578;23.416;2023-07-29T05:59:08;5.30;;;2.90;;
33150;SDS011;19508;42.578;23.416;2023-07-29T06:01:33;7.10;;;2.78;;
33150;SDS011;19508;42.578;23.416;2023-07-29T06:03:59;3.60;;;2.50;;
33150;SDS011;19508;42.578;23.416;2023-07-29T06:06:25;7.13;;;2.97;;
33150;SDS011;19508;42.578;23.416;2023-07-29T06:08:51;2.53;;;2.33;;
33150;SDS011;19508;42.578;23.416;2023-07-29T06:11:16;3.33;;;2.60;;
33150;SDS011;19508;42.578;23.416;2023-07-29T06:13:41;5.80;;;2.88;;
33150;SDS011;19508;42.578;23.416;2023-07-29T06:16:07;3.60;;;2.80;;
33150;SDS011;19508;42.578;23.416;2023-07-29T06:18:32;4.63;;;2.88;;
33150;SDS011;19508;42.578;23.416;2023-07-29T06:20:58;4.13;;;2.50;;
33150;SDS011;19508;42.578;23.416;2023-07-29T06:23:23;3.22;;;2.40;;
33150;SDS011;19508;42.578;23.416;2023-07-29T06:25:48;5.00;;;3.00;;
33150;SDS011;19508;42.578;23.416;2023-07-29T06:28:14;5.60;;;2.60;;
33150;SDS011;19508;42.578;23.416;2023-07-29T06:30:39;6.60;;;2.90;;
33150;SDS011;19508;42.578;23.416;2023-07-29T06:33:05;3.47;;;2.58;;
33150;SDS011;19508;42.578;23.416;2023-07-29T06:35:31;4.22;;;2.47;;
33150;SDS011;19508;42.578;23.416;2023-07-29T06:37:56;5.93;;;2.60;;
33150;SDS011;19508;42.578;23.416;2023-07-29T06:40:22;3.72;;;2.50;;
33150;SDS011;19508;42.578;23.416;2023-07-29T06:42:47;4.50;;;2.38;;
33150;SDS011;19508;42.578;23.416;2023-07-29T06:45:13;4.47;;;2.05;;
33150;SDS011;19508;42.578;23.416;2023-07-29T06:47:38;3.70;;;2.72;;
33150;SDS011;19508;42.578;23.416;2023-07-29T06:50:04;5.32;;;2.20;;
33150;SDS011;19508;42.578;23.416;2023-07-29T06:52:29;7.35;;;2.53;;
33150;SDS011;19508;42.578;23.416;2023-07-29T06:54:55;7.03;;;2.75;;
33150;SDS011;19508;42.578;23.416;2023-07-29T06:57:20;9.00;;;2.17;;
33150;SDS011;19508;42.578;23.416;2023-07-29T06:59:46;2.33;;;1.65;;
33150;SDS011;19508;42.578;23.416;2023-07-29T07:02:11;12.20;;;2.97;;
33150;SDS011;19508;42.578;23.416;2023-07-29T07:04:37;6.93;;;2.08;;
33150;SDS011;19508;42.578;23.416;2023-07-29T07:07:02;12.52;;;2.72;;
33150;SDS011;19508;42.578;23.416;2023-07-29T07:09:28;10.85;;;2.45;;
33150;SDS011;19508;42.578;23.416;2023-07-29T07:11:53;5.97;;;2.22;;
33150;SDS011;19508;42.578;23.416;2023-07-29T07:14:18;3.72;;;1.90;;
33150;SDS011;19508;42.578;23.416;2023-07-29T07:16:44;2.25;;;1.70;;
33150;SDS011;19508;42.578;23.416;2023-07-29T07:19:09;18.33;;;3.22;;
33150;SDS011;19508;42.578;23.416;2023-07-29T07:21:35;11.43;;;2.22;;
33150;SDS011;19508;42.578;23.416;2023-07-29T07:24:01;3.40;;;2.00;;
33150;SDS011;19508;42.578;23.416;2023-07-29T07:26:26;6.03;;;2.35;;
33150;SDS011;19508;42.578;23.416;2023-07-29T07:28:51;40.97;;;4.30;;
33150;SDS011;19508;42.578;23.416;2023-07-29T07:31:17;11.27;;;2.40;;
33150;SDS011;19508;42.578;23.416;2023-07-29T07:33:42;7.55;;;2.92;;
33150;SDS011;19508;42.578;23.416;2023-07-29T07:36:08;5.85;;;2.30;;
33150;SDS011;19508;42.578;23.416;2023-07-29T07:38:33;19.15;;;2.83;;
33150;SDS011;19508;42.578;23.416;2023-07-29T07:40:59;5.30;;;2.45;;
33150;SDS011;19508;42.578;23.416;2023-07-29T07:43:24;4.82;;;2.50;;
33150;SDS011;19508;42.578;23.416;2023-07-29T07:45:50;10.13;;;2.40;;
33150;SDS011;19508;42.578;23.416;2023-07-29T07:48:16;4.30;;;2.20;;
33150;SDS011;19508;42.578;23.416;2023-07-29T07:50:42;6.45;;;2.40;;
33150;SDS011;19508;42.578;23.416;2023-07-29T07:53:08;14.55;;;2.92;;
33150;SDS011;19508;42.578;23.416;2023-07-29T07:55:33;5.38;;;2.70;;
33150;SDS011;19508;42.578;23.416;2023-07-29T07:57:59;5.57;;;2.10;;
33150;SDS011;19508;42.578;23.416;2023-07-29T08:00:24;8.68;;;2.67;;
33150;SDS011;19508;42.578;23.416;2023-07-29T08:02:50;8.10;;;2.58;;
33150;SDS011;19508;42.578;23.416;2023-07-29T08:05:15;8.20;;;1.95;;
33150;SDS011;19508;42.578;23.416;2023-07-29T08:07:40;9.13;;;2.40;;
33150;SDS011;19508;42.578;23.416;2023-07-29T08:10:06;7.10;;;2.75;;
33150;SDS011;19508;42.578;23.416;2023-07-29T08:12:32;3.50;;;2.20;;
33150;SDS011;19508;42.578;23.416;2023-07-29T08:14:57;9.10;;;2.63;;
33150;SDS011;19508;42.578;23.416;2023-07-29T08:17:23;3.08;;;2.45;;
33150;SDS011;19508;42.578;23.416;2023-07-29T08:19:48;8.77;;;2.05;;
33150;SDS011;19508;42.578;23.416;2023-07-29T08:22:14;7.07;;;2.55;;
33150;SDS011;19508;42.578;23.416;2023-07-29T08:24:41;5.90;;;2.42;;
33150;SDS011;19508;42.578;23.416;2023-07-29T08:27:07;11.27;;;2.28;;
33150;SDS011;19508;42.578;23.416;2023-07-29T08:29:33;6.40;;;2.13;;
33150;SDS011;19508;42.578;23.416;2023-07-29T08:31:58;3.47;;;1.95;;
33150;SDS011;19508;42.578;23.416;2023-07-29T08:34:23;3.00;;;2.10;;
33150;SDS011;19508;42.578;23.416;2023-07-29T08:36:49;6.25;;;2.33;;
33150;SDS011;19508;42.578;23.416;2023-07-29T08:39:14;6.45;;;2.15;;
33150;SDS011;19508;42.578;23.416;2023-07-29T08:44:18;5.70;;;2.13;;
33150;SDS011;19508;42.578;23.416;2023-07-29T08:46:50;4.05;;;2.35;;
33150;SDS011;19508;42.578;23.416;2023-07-29T08:49:16;13.60;;;2.47;;
33150;SDS011;19508;42.578;23.416;2023-07-29T08:51:44;15.82;;;1.90;;
33150;SDS011;19508;42.578;23.416;2023-07-29T08:54:11;5.45;;;1.88;;
33150;SDS011;19508;42.578;23.416;2023-07-29T08:56:37;5.82;;;1.90;;
33150;SDS011;19508;42.578;23.416;2023-07-29T08:59:03;4.10;;;1.90;;
33150;SDS011;19508;42.578;23.416;2023-07-29T09:01:30;1.85;;;1.60;;
33150;SDS011;19508;42.578;23.416;2023-07-29T09:03:55;5.43;;;1.83;;
33150;SDS011;19508;42.578;23.416;2023-07-29T09:06:21;3.53;;;1.90;;
33150;SDS011;19508;42.578;23.416;2023-07-29T09:08:51;3.75;;;2.05;;
33150;SDS011;19508;42.578;23.416;2023-07-29T09:11:19;3.53;;;1.83;;
33150;SDS011;19508;42.578;23.416;2023-07-29T09:13:45;2.33;;;1.83;;
33150;SDS011;19508;42.578;23.416;2023-07-29T09:16:11;2.60;;;1.58;;
33150;SDS011;19508;42.578;23.416;2023-07-29T09:18:38;4.13;;;1.92;;
33150;SDS011;19508;42.578;23.416;2023-07-29T09:21:03;5.38;;;1.58;;
33150;SDS011;19508;42.578;23.416;2023-07-29T09:23:38;2.50;;;1.67;;
33150;SDS011;19508;42.578;23.416;2023-07-29T09:26:06;6.35;;;2.00;;
33150;SDS011;19508;42.578;23.416;2023-07-29T09:28:35;2.13;;;1.40;;
33150;SDS011;19508;42.578;23.416;2023-07-29T09:31:02;4.13;;;1.35;;
33150;SDS011;19508;42.578;23.416;2023-07-29T09:33:28;3.28;;;1.30;;
33150;SDS011;19508;42.578;23.416;2023-07-29T09:35:54;11.57;;;1.30;;
33150;SDS011;19508;42.578;23.416;2023-07-29T09:38:25;2.22;;;1.20;;
33150;SDS011;19508;42.578;23.416;2023-07-29T09:40:54;8.02;;;1.90;;
33150;SDS011;19508;42.578;23.416;2023-07-29T09:43:24;9.25;;;1.17;;
33150;SDS011;19508;42.578;23.416;2023-07-29T09:45:51;3.58;;;1.27;;
33150;SDS011;19508;42.578;23.416;2023-07-29T09:48:17;6.78;;;1.27;;
33150;SDS011;19508;42.578;23.416;2023-07-29T09:50:47;3.67;;;1.48;;
33150;SDS011;19508;42.578;23.416;2023-07-29T09:53:13;4.88;;;1.30;;
33150;SDS011;19508;42.578;23.416;2023-07-29T09:55:39;8.10;;;1.30;;
33150;SDS011;19508;42.578;23.416;2023-07-29T09:58:05;6.65;;;1.23;;
33150;SDS011;19508;42.578;23.416;2023-07-29T10:00:33;3.60;;;0.80;;
33150;SDS011;19508;42.578;23.416;2023-07-29T10:02:59;0.60;;;0.60;;
33150;SDS011;19508;42.578;23.416;2023-07-29T10:05:26;3.42;;;0.68;;
33150;SDS011;19508;42.578;23.416;2023-07-29T10:07:53;3.13;;;1.08;;
33150;SDS011;19508;42.578;23.416;2023-07-29T10:10:20;5.15;;;1.00;;
33150;SDS011;19508;42.578;23.416;2023-07-29T10:12:46;2.10;;;1.08;;
33150;SDS011;19508;42.578;23.416;2023-07-29T10:15:12;7.35;;;1.00;;
33150;SDS011;19508;42.578;23.416;2023-07-29T10:17:39;6.72;;;1.00;;
33150;SDS011;19508;42.578;23.416;2023-07-29T10:20:09;4.18;;;1.02;;
33150;SDS011;19508;42.578;23.416;2023-07-29T10:22:37;6.15;;;1.05;;
33150;SDS011;19508;42.578;23.416;2023-07-29T10:25:04;3.22;;;0.90;;
33150;SDS011;19508;42.578;23.416;2023-07-29T10:27:49;1.30;;;0.82;;
33150;SDS011;19508;42.578;23.416;2023-07-29T10:30:26;2.35;;;0.95;;
33150;SDS011;19508;42.578;23.416;2023-07-29T10:32:53;3.35;;;0.93;;
33150;SDS011;19508;42.578;23.416;2023-07-29T10:35:23;0.65;;;0.50;;
33150;SDS011;19508;42.578;23.416;2023-07-29T10:37:48;4.68;;;0.45;;
33150;SDS011;19508;42.578;23.416;2023-07-29T10:40:16;0.60;;;0.50;;
33150;SDS011;19508;42.578;23.416;2023-07-29T10:42:59;3.22;;;0.77;;
33150;SDS011;19508;42.578;23.416;2023-07-29T10:45:36;0.80;;;0.60;;
33150;SDS011;19508;42.578;23.416;2023-07-29T10:48:07;5.57;;;0.68;;
33150;SDS011;19508;42.578;23.416;2023-07-29T10:50:38;1.98;;;0.63;;
33150;SDS011;19508;42.578;23.416;2023-07-29T10:53:04;1.05;;;0.45;;
33150;SDS011;19508;42.578;23.416;2023-07-29T10:58:16;1.77;;;1.00;;
33150;SDS011;19508;42.578;23.416;2023-07-29T11:00:45;1.63;;;1.05;;
33150;SDS011;19508;42.578;23.416;2023-07-29T11:03:12;3.35;;;0.88;;
33150;SDS011;19508;42.578;23.416;2023-07-29T11:05:41;1.75;;;0.70;;
33150;SDS011;19508;42.578;23.416;2023-07-29T11:08:27;1.05;;;0.80;;
33150;SDS011;19508;42.578;23.416;2023-07-29T11:10:57;4.00;;;0.70;;
33150;SDS011;19508;42.578;23.416;2023-07-29T11:13:27;5.07;;;0.73;;
33150;SDS011;19508;42.578;23.416;2023-07-29T11:15:53;0.93;;;0.82;;
33150;SDS011;19508;42.578;23.416;2023-07-29T11:18:19;4.03;;;1.00;;
33150;SDS011;19508;42.578;23.416;2023-07-29T11:20:46;1.17;;;0.73;;
33150;SDS011;19508;42.578;23.416;2023-07-29T11:23:13;2.17;;;1.20;;
33150;SDS011;19508;42.578;23.416;2023-07-29T11:25:38;1.35;;;0.77;;
33150;SDS011;19508;42.578;23.416;2023-07-29T11:28:04;0.65;;;0.60;;
33150;SDS011;19508;42.578;23.416;2023-07-29T11:30:29;2.90;;;0.95;;
33150;SDS011;19508;42.578;23.416;2023-07-29T11:32:56;0.52;;;0.52;;
33150;SDS011;19508;42.578;23.416;2023-07-29T11:35:23;1.17;;;0.93;;
33150;SDS011;19508;42.578;23.416;2023-07-29T11:37:49;3.90;;;0.80;;
33150;SDS011;19508;42.578;23.416;2023-07-29T11:40:16;1.45;;;1.00;;
33150;SDS011;19508;42.578;23.416;2023-07-29T11:42:45;1.95;;;1.20;;
33150;SDS011;19508;42.578;23.416;2023-07-29T11:45:11;1.67;;;0.93;;
33150;SDS011;19508;42.578;23.416;2023-07-29T11:47:38;1.42;;;0.80;;
33150;SDS011;19508;42.578;23.416;2023-07-29T11:50:07;1.40;;;0.82;;
33150;SDS011;19508;42.578;23.416;2023-07-29T11:52:35;1.65;;;1.20;;
33150;SDS011;19508;42.578;23.416;2023-07-29T11:55:02;1.08;;;0.98;;
33150;SDS011;19508;42.578;23.416;2023-07-29T11:57:36;1.42;;;0.93;;
33150;SDS011;19508;42.578;23.416;2023-07-29T12:00:06;2.33;;;1.13;;
33150;SDS011;19508;42.578;23.416;2023-07-29T12:02:36;3.65;;;0.90;;
33150;SDS011;19508;42.578;23.416;2023-07-29T12:05:04;8.80;;;1.02;;
33150;SDS011;19508;42.578;23.416;2023-07-29T12:07:31;2.97;;;1.20;;
33150;SDS011;19508;42.578;23.416;2023-07-29T12:09:58;1.95;;;1.02;;
33150;SDS011;19508;42.578;23.416;2023-07-29T12:12:24;3.05;;;0.93;;
33150;SDS011;19508;42.578;23.416;2023-07-29T12:14:49;1.65;;;1.05;;
33150;SDS011;19508;42.578;23.416;2023-07-29T12:17:15;2.75;;;1.20;;
33150;SDS011;19508;42.578;23.416;2023-07-29T12:19:41;5.53;;;1.13;;
33150;SDS011;19508;42.578;23.416;2023-07-29T12:22:08;2.10;;;0.93;;
33150;SDS011;19508;42.578;23.416;2023-07-29T12:24:38;8.63;;;0.90;;
33150;SDS011;19508;42.578;23.416;2023-07-29T12:27:05;1.15;;;0.88;;
33150;SDS011;19508;42.578;23.416;2023-07-29T12:29:39;2.90;;;0.90;;
33150;SDS011;19508;42.578;23.416;2023-07-29T12:32:05;9.25;;;1.10;;
33150;SDS011;19508;42.578;23.416;2023-07-29T12:34:32;1.65;;;1.00;;
33150;SDS011;19508;42.578;23.416;2023-07-29T12:36:58;3.47;;;1.50;;
33150;SDS011;19508;42.578;23.416;2023-07-29T12:39:29;1.75;;;1.00;;
33150;SDS011;19508;42.578;23.416;2023-07-29T12:41:56;6.60;;;1.20;;
33150;SDS011;19508;42.578;23.416;2023-07-29T12:44:23;3.88;;;1.10;;
33150;SDS011;19508;42.578;23.416;2023-07-29T12:46:49;2.33;;;1.20;;
33150;SDS011;19508;42.578;23.416;2023-07-29T12:49:15;9.02;;;1.20;;
33150;SDS011;19508;42.578;23.416;2023-07-29T12:51:40;2.42;;;1.20;;
33150;SDS011;19508;42.578;23.416;2023-07-29T12:54:06;4.00;;;1.23;;
33150;SDS011;19508;42.578;23.416;2023-07-29T12:56:31;4.90;;;1.45;;
33150;SDS011;19508;42.578;23.416;2023-07-29T12:58:58;5.07;;;1.20;;
33150;SDS011;19508;42.578;23.416;2023-07-29T13:01:24;5.53;;;1.10;;
33150;SDS011;19508;42.578;23.416;2023-07-29T13:03:49;4.47;;;1.10;;
33150;SDS011;19508;42.578;23.416;2023-07-29T13:06:15;1.40;;;1.27;;
33150;SDS011;19508;42.578;23.416;2023-07-29T13:08:44;1.98;;;0.90;;
33150;SDS011;19508;42.578;23.416;2023-07-29T13:11:10;3.08;;;1.13;;
33150;SDS011;19508;42.578;23.416;2023-07-29T13:13:35;3.00;;;0.98;;
33150;SDS011;19508;42.578;23.416;2023-07-29T13:16:01;1.98;;;1.10;;
33150;SDS011;19508;42.578;23.416;2023-07-29T13:18:26;2.30;;;0.82;;
33150;SDS011;19508;42.578;23.416;2023-07-29T13:20:54;5.60;;;0.90;;
33150;SDS011;19508;42.578;23.416;2023-07-29T13:23:21;1.17;;;0.93;;
33150;SDS011;19508;42.578;23.416;2023-07-29T13:25:47;3.03;;;0.90;;
33150;SDS011;19508;42.578;23.416;2023-07-29T13:28:12;6.10;;;1.40;;
33150;SDS011;19508;42.578;23.416;2023-07-29T13:30:38;3.92;;;1.23;;
33150;SDS011;19508;42.578;23.416;2023-07-29T13:33:05;6.15;;;2.15;;
33150;SDS011;19508;42.578;23.416;2023-07-29T13:35:31;7.18;;;2.05;;
33150;SDS011;19508;42.578;23.416;2023-07-29T13:37:57;6.47;;;1.40;;
33150;SDS011;19508;42.578;23.416;2023-07-29T13:40:22;2.55;;;2.08;;
33150;SDS011;19508;42.578;23.416;2023-07-29T13:42:47;1.55;;;1.30;;
33150;SDS011;19508;42.578;23.416;2023-07-29T13:45:13;3.13;;;1.20;;
33150;SDS011;19508;42.578;23.416;2023-07-29T13:47:38;1.85;;;0.95;;
33150;SDS011;19508;42.578;23.416;2023-07-29T13:50:04;2.60;;;1.40;;
33150;SDS011;19508;42.578;23.416;2023-07-29T13:52:32;2.50;;;1.30;;
33150;SDS011;19508;42.578;23.416;2023-07-29T13:54:58;3.05;;;1.23;;
33150;SDS011;19508;42.578;23.416;2023-07-29T13:57:23;1.33;;;1.10;;
33150;SDS011;19508;42.578;23.416;2023-07-29T13:59:48;1.90;;;0.90;;
33150;SDS011;19508;42.578;23.416;2023-07-29T14:02:14;2.28;;;1.00;;
33150;SDS011;19508;42.578;23.416;2023-07-29T14:04:39;1.10;;;1.00;;
33150;SDS011;19508;42.578;23.416;2023-07-29T14:07:04;3.17;;;1.45;;
33150;SDS011;19508;42.578;23.416;2023-07-29T14:09:30;2.65;;;1.23;;
33150;SDS011;19508;42.578;23.416;2023-07-29T14:11:55;3.05;;;1.27;;
33150;SDS011;19508;42.578;23.416;2023-07-29T14:14:21;1.30;;;1.17;;
33150;SDS011;19508;42.578;23.416;2023-07-29T14:16:46;1.70;;;1.25;;
33150;SDS011;19508;42.578;23.416;2023-07-29T14:19:12;4.53;;;1.30;;
33150;SDS011;19508;42.578;23.416;2023-07-29T14:21:38;3.50;;;1.85;;
33150;SDS011;19508;42.578;23.416;2023-07-29T14:24:04;3.35;;;1.17;;
33150;SDS011;19508;42.578;23.416;2023-07-29T14:26:30;2.03;;;1.15;;
33150;SDS011;19508;42.578;23.416;2023-07-29T14:28:55;8.25;;;1.50;;
33150;SDS011;19508;42.578;23.416;2023-07-29T14:31:21;3.10;;;1.20;;
33150;SDS011;19508;42.578;23.416;2023-07-29T14:33:47;11.40;;;1.67;;
33150;SDS011;19508;42.578;23.416;2023-07-29T14:36:14;3.67;;;1.55;;
33150;SDS011;19508;42.578;23.416;2023-07-29T14:38:40;8.63;;;1.80;;
33150;SDS011;19508;42.578;23.416;2023-07-29T14:41:05;10.00;;;2.50;;
33150;SDS011;19508;42.578;23.416;2023-07-29T14:43:31;5.68;;;1.80;;
33150;SDS011;19508;42.578;23.416;2023-07-29T14:45:56;1.95;;;1.20;;